createdAt,value
2022-12-19T19:25:27.307Z,4.18
2022-12-19T19:25:58.502Z,4.15
2022-12-19T19:26:29.595Z,4.15
2022-12-19T19:27:00.491Z,4.15
2022-12-19T19:27:31.455Z,4.15
2022-12-19T19:28:02.719Z,4.12
2022-12-19T19:28:33.784Z,4.11
2022-12-19T19:29:04.685Z,4.06
2022-12-19T19:29:35.797Z,4.05
2022-12-19T19:30:06.912Z,4.00
2022-12-19T19:30:38.251Z,4.04
2022-12-19T19:31:09.155Z,4.04
2022-12-19T19:31:40.222Z,4.05
2022-12-19T19:32:11.416Z,4.09
2022-12-19T19:32:42.682Z,4.12
2022-12-19T19:33:13.729Z,4.15
2022-12-19T19:33:44.826Z,4.14
2022-12-19T19:34:15.805Z,4.12
2022-12-19T19:34:47.355Z,4.12
2022-12-19T19:35:18.561Z,4.11
2022-12-19T19:35:49.867Z,4.12
2022-12-19T19:36:21.605Z,4.11
2022-12-19T19:36:52.538Z,4.11
2022-12-19T19:37:23.599Z,4.08
2022-12-19T19:37:54.633Z,4.08
2022-12-19T19:38:25.595Z,4.08
2022-12-19T19:38:56.671Z,4.14
2022-12-19T19:39:27.500Z,4.23
2022-12-19T19:39:58.815Z,4.26
2022-12-19T19:40:30.057Z,4.27
2022-12-19T19:41:01.665Z,4.27
2022-12-19T19:41:32.592Z,4.27
2022-12-19T19:42:03.666Z,4.29
2022-12-19T19:42:34.752Z,4.27
2022-12-19T19:43:05.668Z,4.29
2022-12-19T19:43:36.601Z,4.26
2022-12-19T19:44:07.556Z,4.24
2022-12-19T19:44:38.372Z,4.24
2022-12-19T19:45:09.399Z,4.24
2022-12-19T19:45:43.461Z,4.24
2022-12-19T19:46:11.713Z,4.26
2022-12-19T19:46:43.024Z,4.27
2022-12-19T19:47:14.052Z,4.27
2022-12-19T19:47:45.453Z,4.26
2022-12-19T19:48:16.955Z,4.24
2022-12-19T19:48:47.986Z,4.24
2022-12-19T19:49:19.331Z,4.20
2022-12-19T19:49:50.988Z,4.18
2022-12-19T19:50:22.009Z,4.18
2022-12-19T19:50:53.198Z,4.16
2022-12-19T19:51:24.077Z,4.20
2022-12-19T19:52:01.960Z,4.23
2022-12-19T19:52:27.784Z,4.23
2022-12-19T19:52:59.039Z,4.22
2022-12-19T19:53:30.092Z,4.20
2022-12-19T19:54:01.232Z,4.20
2022-12-19T19:54:32.379Z,4.18
2022-12-19T19:55:03.508Z,4.16
2022-12-19T19:55:34.613Z,4.15
2022-12-19T19:56:05.827Z,4.16
2022-12-19T19:56:37.167Z,4.16
2022-12-19T19:57:08.076Z,4.16
2022-12-19T19:57:38.911Z,4.18
2022-12-19T19:58:09.850Z,4.16
2022-12-19T19:58:40.764Z,4.15
2022-12-19T19:59:11.947Z,4.15
2022-12-19T19:59:42.807Z,4.18
2022-12-19T20:00:13.846Z,4.24
2022-12-19T20:00:44.793Z,4.30
2022-12-19T20:01:15.942Z,4.36
2022-12-19T20:01:47.014Z,4.40
2022-12-19T20:02:18.200Z,4.41
2022-12-19T20:02:49.280Z,4.42
2022-12-19T20:03:23.051Z,4.41
2022-12-19T20:03:51.731Z,4.37
2022-12-19T20:04:22.768Z,4.37
2022-12-19T20:04:53.825Z,4.34
2022-12-19T20:05:24.705Z,4.33
2022-12-19T20:05:55.825Z,4.32
2022-12-19T20:06:26.629Z,4.30
2022-12-19T20:06:57.549Z,4.30
2022-12-19T20:07:28.379Z,4.27
2022-12-19T20:07:59.244Z,4.24
2022-12-19T20:08:38.569Z,4.23
2022-12-19T20:09:02.771Z,4.18
2022-12-19T20:09:33.633Z,4.14
2022-12-19T20:10:04.440Z,4.14
2022-12-19T20:10:35.252Z,4.14
2022-12-19T20:11:06.106Z,4.15
2022-12-19T20:11:36.951Z,4.18
2022-12-19T20:12:07.764Z,4.20
2022-12-19T20:12:38.567Z,4.16
2022-12-19T20:13:09.344Z,4.16
2022-12-19T20:13:40.194Z,4.14
2022-12-19T20:14:10.991Z,4.11
2022-12-19T20:14:41.815Z,4.09
2022-12-19T20:15:12.599Z,4.06
2022-12-19T20:15:49.503Z,4.04
2022-12-19T20:16:16.218Z,4.06
2022-12-19T20:16:47.211Z,4.08
2022-12-19T20:17:18.089Z,4.09
2022-12-19T20:17:48.873Z,4.08
2022-12-19T20:18:19.673Z,4.09
2022-12-19T20:18:50.498Z,4.11
2022-12-19T20:19:21.242Z,4.20
2022-12-19T20:19:52.072Z,4.27
2022-12-19T20:20:22.844Z,4.32
2022-12-19T20:20:53.642Z,4.34
2022-12-19T20:21:24.424Z,4.36
2022-12-19T20:21:55.217Z,4.37
2022-12-19T20:22:26.006Z,4.37
2022-12-19T20:22:56.765Z,4.40
2022-12-19T20:23:27.550Z,4.42
2022-12-19T20:23:58.324Z,4.45
2022-12-19T20:24:29.107Z,4.47
2022-12-19T20:24:59.920Z,4.50
2022-12-19T20:25:30.704Z,4.50
2022-12-19T20:26:01.540Z,4.48
2022-12-19T20:26:32.298Z,4.48
2022-12-19T20:27:03.067Z,4.45
2022-12-19T20:27:33.833Z,4.42
2022-12-19T20:28:04.703Z,4.40
2022-12-19T20:28:35.492Z,4.34
2022-12-19T20:29:06.319Z,4.34
2022-12-19T20:29:37.138Z,4.32
2022-12-19T20:30:08.157Z,4.27
2022-12-19T20:30:39.100Z,4.27
2022-12-19T20:31:10.288Z,4.27
2022-12-19T20:31:41.555Z,4.26
2022-12-19T20:32:12.390Z,4.27
2022-12-19T20:32:43.191Z,4.30
2022-12-19T20:33:13.947Z,4.32
2022-12-19T20:33:44.739Z,4.32
2022-12-19T20:34:15.504Z,4.34
2022-12-19T20:34:46.325Z,4.37
2022-12-19T20:35:17.116Z,4.40
2022-12-19T20:35:47.935Z,4.41
2022-12-19T20:36:18.777Z,4.41
2022-12-19T20:36:49.570Z,4.40
2022-12-19T20:37:20.351Z,4.36
2022-12-19T20:37:51.133Z,4.36
2022-12-19T20:38:21.913Z,4.34
2022-12-19T20:38:52.713Z,4.33
2022-12-19T20:39:23.516Z,4.30
2022-12-19T20:39:54.299Z,4.30
2022-12-19T20:40:25.149Z,4.26
2022-12-19T20:40:56.034Z,4.24
2022-12-19T20:41:26.849Z,4.24
2022-12-19T20:41:57.644Z,4.23
2022-12-19T20:42:28.444Z,4.22
2022-12-19T20:42:59.264Z,4.18
2022-12-19T20:43:30.088Z,4.15
2022-12-19T20:44:00.863Z,4.12
2022-12-19T20:44:31.647Z,4.09
2022-12-19T20:45:02.467Z,4.06
2022-12-19T20:45:33.295Z,4.05
2022-12-19T20:46:04.141Z,4.02
2022-12-19T20:46:34.981Z,4.02
2022-12-19T20:47:05.882Z,4.04
2022-12-19T20:47:36.661Z,4.02
2022-12-19T20:48:07.454Z,4.05
2022-12-19T20:48:38.233Z,4.08
2022-12-19T20:49:09.021Z,4.08
2022-12-19T20:49:39.807Z,4.11
2022-12-19T20:50:16.537Z,4.14
2022-12-19T20:50:43.133Z,4.14
2022-12-19T20:51:14.260Z,4.12
2022-12-19T20:51:45.042Z,4.11
2022-12-19T20:52:15.841Z,4.11
2022-12-19T20:52:46.612Z,4.08
2022-12-19T20:53:17.428Z,4.05
2022-12-19T20:53:48.209Z,4.02
2022-12-19T20:54:19.015Z,4.00
2022-12-19T20:54:49.789Z,3.98
2022-12-19T20:55:20.571Z,3.98
2022-12-19T20:55:57.456Z,4.00
2022-12-19T20:56:23.975Z,4.05
2022-12-19T20:56:54.751Z,4.08
2022-12-19T20:57:25.578Z,4.09
2022-12-19T20:57:56.374Z,4.11
2022-12-19T20:58:27.185Z,4.12
2022-12-19T20:58:57.974Z,4.14
2022-12-19T20:59:28.752Z,4.12
2022-12-19T20:59:59.533Z,4.11
2022-12-19T21:00:30.379Z,4.12
2022-12-19T21:01:01.136Z,4.16
2022-12-19T21:01:32.100Z,4.18
2022-12-19T21:02:03.107Z,4.18
2022-12-19T21:02:53.002Z,4.18
2022-12-19T21:03:39.512Z,4.16
2022-12-19T21:04:10.791Z,4.15
2022-12-19T21:04:41.729Z,4.15
2022-12-19T21:05:12.550Z,4.18
2022-12-19T21:05:43.357Z,4.18
2022-12-19T21:06:14.111Z,4.22
2022-12-19T21:06:44.923Z,4.23
2022-12-19T21:07:15.712Z,4.24
2022-12-19T21:07:46.497Z,4.24
2022-12-19T21:08:17.283Z,4.24
2022-12-19T21:08:48.075Z,4.24
2022-12-19T21:09:18.863Z,4.24
2022-12-19T21:09:49.666Z,4.23
2022-12-19T21:10:20.437Z,4.22
2022-12-19T21:10:51.224Z,4.20
2022-12-19T21:11:22.032Z,4.18
2022-12-19T21:11:52.788Z,4.16
2022-12-19T21:12:23.585Z,4.15
2022-12-19T21:12:54.393Z,4.16
2022-12-19T21:13:25.192Z,4.18
2022-12-19T21:13:55.970Z,4.18
2022-12-19T21:14:26.749Z,4.18
2022-12-19T21:14:57.540Z,4.18
2022-12-19T21:15:28.337Z,4.15
2022-12-19T21:15:59.280Z,4.14
2022-12-19T21:16:30.148Z,4.14
2022-12-19T21:17:00.983Z,4.12
2022-12-19T21:17:31.798Z,4.14
2022-12-19T21:18:02.593Z,4.14
2022-12-19T21:18:33.350Z,4.14
2022-12-19T21:19:04.148Z,4.14
2022-12-19T21:19:34.932Z,4.14
2022-12-19T21:20:05.698Z,4.14
2022-12-19T21:20:36.532Z,4.14
2022-12-19T21:21:07.314Z,4.12
2022-12-19T21:21:38.117Z,4.09
2022-12-19T21:22:08.931Z,4.08
2022-12-19T21:22:39.720Z,4.09
2022-12-19T21:23:10.499Z,4.08
2022-12-19T21:23:41.301Z,4.06
2022-12-19T21:24:12.081Z,4.05
2022-12-19T21:24:42.851Z,4.04
2022-12-19T21:25:13.623Z,4.04
2022-12-19T21:25:44.517Z,4.00
2022-12-19T21:26:15.277Z,4.00
2022-12-19T21:26:46.070Z,3.98
2022-12-19T21:27:16.928Z,4.00
2022-12-19T21:27:47.763Z,3.98
2022-12-19T21:28:18.545Z,3.98
2022-12-19T21:28:49.342Z,4.00
2022-12-19T21:29:20.122Z,4.00
2022-12-19T21:29:50.879Z,4.02
2022-12-19T21:30:21.651Z,4.00
2022-12-19T21:30:52.471Z,4.02
2022-12-19T21:31:23.475Z,3.98
2022-12-19T21:31:54.352Z,3.97
2022-12-19T21:32:25.252Z,3.98
2022-12-19T21:32:56.060Z,3.98
2022-12-19T21:33:26.861Z,3.96
2022-12-19T21:33:57.661Z,3.96
2022-12-19T21:34:28.427Z,3.96
2022-12-19T21:34:59.197Z,3.98
2022-12-19T21:35:30.091Z,4.00
2022-12-19T21:36:00.890Z,4.02
2022-12-19T21:36:31.690Z,4.05
2022-12-19T21:37:02.463Z,4.06
2022-12-19T21:37:37.038Z,4.06
2022-12-19T21:38:05.847Z,4.06
2022-12-19T21:38:36.632Z,4.04
2022-12-19T21:39:07.425Z,4.04
2022-12-19T21:39:38.258Z,4.04
2022-12-19T21:40:09.057Z,4.02
2022-12-19T21:40:39.876Z,4.04
2022-12-19T21:41:10.706Z,4.04
2022-12-19T21:41:41.500Z,4.04
2022-12-19T21:42:12.313Z,4.02
2022-12-19T21:42:43.119Z,4.02
2022-12-19T21:43:13.924Z,4.00
2022-12-19T21:43:44.736Z,3.98
2022-12-19T21:44:15.549Z,3.98
2022-12-19T21:44:46.387Z,3.98
2022-12-19T21:45:17.178Z,3.98
2022-12-19T21:45:48.035Z,3.98
2022-12-19T21:46:18.875Z,3.98
2022-12-19T21:46:49.794Z,3.98
2022-12-19T21:47:20.668Z,4.00
2022-12-19T21:47:51.473Z,4.05
2022-12-19T21:48:22.248Z,4.06
2022-12-19T21:48:53.053Z,4.08
2022-12-19T21:49:23.879Z,4.09
2022-12-19T21:49:54.647Z,4.08
2022-12-19T21:50:25.455Z,4.09
2022-12-19T21:50:56.245Z,4.09
2022-12-19T21:51:27.046Z,4.11
2022-12-19T21:51:57.838Z,4.11
2022-12-19T21:52:28.594Z,4.09
2022-12-19T21:52:59.708Z,4.09
2022-12-19T21:53:30.570Z,4.09
2022-12-19T21:54:01.406Z,4.08
2022-12-19T21:54:32.241Z,4.09
2022-12-19T21:55:03.030Z,4.09
2022-12-19T21:55:33.777Z,4.08
2022-12-19T21:56:04.575Z,4.08
2022-12-19T21:56:35.371Z,4.11
2022-12-19T21:57:06.138Z,4.11
2022-12-19T21:57:36.907Z,4.11
2022-12-19T21:58:07.697Z,4.11
2022-12-19T21:58:38.469Z,4.09
2022-12-19T21:59:09.242Z,4.08
2022-12-19T21:59:40.028Z,4.08
2022-12-19T22:00:11.013Z,4.09
2022-12-19T22:00:42.083Z,4.09
2022-12-19T22:01:13.146Z,4.11
2022-12-19T22:01:44.094Z,4.14
2022-12-19T22:02:15.361Z,4.12
2022-12-19T22:03:11.602Z,4.14
2022-12-19T22:03:19.429Z,4.14
2022-12-19T22:03:50.906Z,4.15
2022-12-19T22:04:22.138Z,4.16
2022-12-19T22:04:53.142Z,4.18
2022-12-19T22:05:24.066Z,4.20
2022-12-19T22:06:54.961Z,4.23
2022-12-19T22:07:25.764Z,4.23
2022-12-19T22:07:56.619Z,4.23
2022-12-19T22:08:27.441Z,4.23
2022-12-19T22:08:58.304Z,4.24
2022-12-19T22:09:29.129Z,4.24
2022-12-19T22:09:59.966Z,4.24
2022-12-19T22:10:30.710Z,4.23
2022-12-19T22:11:01.507Z,4.23
